sensor_id;sensor_type;location;lat;lon;timestamp;P1;durP1;ratioP1;P2;durP2;ratioP2
65597;SDS011;52267;51.984;20.956;2022-09-01T00:02:25;4.10;;;2.50;;
65597;SDS011;52267;51.984;20.956;2022-09-01T00:04:53;4.70;;;2.50;;
65597;SDS011;52267;51.984;20.956;2022-09-01T00:07:28;3.60;;;2.00;;
65597;SDS011;52267;51.984;20.956;2022-09-01T00:09:58;5.20;;;2.50;;
65597;SDS011;52267;51.984;20.956;2022-09-01T00:12:27;4.70;;;2.30;;
65597;SDS011;52267;51.984;20.956;2022-09-01T00:14:55;3.50;;;2.00;;
65597;SDS011;52267;51.984;20.956;2022-09-01T00:17:22;4.90;;;2.40;;
65597;SDS011;52267;51.984;20.956;2022-09-01T00:19:49;4.30;;;2.00;;
65597;SDS011;52267;51.984;20.956;2022-09-01T00:22:16;6.40;;;2.30;;
65597;SDS011;52267;51.984;20.956;2022-09-01T00:24:43;4.10;;;2.00;;
65597;SDS011;52267;51.984;20.956;2022-09-01T00:27:10;3.40;;;2.00;;
65597;SDS011;52267;51.984;20.956;2022-09-01T00:29:37;4.10;;;2.10;;
65597;SDS011;52267;51.984;20.956;2022-09-01T00:32:04;4.10;;;2.00;;
65597;SDS011;52267;51.984;20.956;2022-09-01T00:34:31;5.60;;;2.30;;
65597;SDS011;52267;51.984;20.956;2022-09-01T00:36:58;4.70;;;2.00;;
65597;SDS011;52267;51.984;20.956;2022-09-01T00:39:25;4.60;;;2.40;;
65597;SDS011;52267;51.984;20.956;2022-09-01T00:41:52;3.60;;;2.30;;
65597;SDS011;52267;51.984;20.956;2022-09-01T00:44:21;3.30;;;1.70;;
65597;SDS011;52267;51.984;20.956;2022-09-01T00:46:54;3.10;;;1.80;;
65597;SDS011;52267;51.984;20.956;2022-09-01T00:49:29;3.60;;;1.80;;
65597;SDS011;52267;51.984;20.956;2022-09-01T00:52:06;4.80;;;2.10;;
65597;SDS011;52267;51.984;20.956;2022-09-01T00:54:50;4.30;;;1.90;;
65597;SDS011;52267;51.984;20.956;2022-09-01T00:57:20;4.40;;;2.00;;
65597;SDS011;52267;51.984;20.956;2022-09-01T01:00:17;4.80;;;1.80;;
65597;SDS011;52267;51.984;20.956;2022-09-01T01:02:47;2.80;;;1.80;;
65597;SDS011;52267;51.984;20.956;2022-09-01T01:05:19;4.60;;;1.70;;
65597;SDS011;52267;51.984;20.956;2022-09-01T01:07:47;3.30;;;1.70;;
65597;SDS011;52267;51.984;20.956;2022-09-01T01:10:17;3.60;;;2.10;;
65597;SDS011;52267;51.984;20.956;2022-09-01T01:12:44;5.80;;;2.00;;
65597;SDS011;52267;51.984;20.956;2022-09-01T01:15:12;5.30;;;2.30;;
65597;SDS011;52267;51.984;20.956;2022-09-01T01:17:40;4.40;;;2.20;;
65597;SDS011;52267;51.984;20.956;2022-09-01T01:20:07;4.40;;;2.10;;
65597;SDS011;52267;51.984;20.956;2022-09-01T01:25:54;3.10;;;2.00;;
65597;SDS011;52267;51.984;20.956;2022-09-01T01:28:32;3.90;;;2.30;;
65597;SDS011;52267;51.984;20.956;2022-09-01T01:31:05;4.00;;;2.30;;
65597;SDS011;52267;51.984;20.956;2022-09-01T01:33:40;3.60;;;1.90;;
65597;SDS011;52267;51.984;20.956;2022-09-01T01:36:13;3.10;;;1.80;;
65597;SDS011;52267;51.984;20.956;2022-09-01T01:41:10;3.70;;;2.10;;
65597;SDS011;52267;51.984;20.956;2022-09-01T01:43:39;4.50;;;2.30;;
65597;SDS011;52267;51.984;20.956;2022-09-01T01:46:08;4.90;;;2.50;;
65597;SDS011;52267;51.984;20.956;2022-09-01T01:48:38;4.60;;;2.60;;
65597;SDS011;52267;51.984;20.956;2022-09-01T01:51:08;3.60;;;2.40;;
65597;SDS011;52267;51.984;20.956;2022-09-01T01:53:37;3.60;;;2.40;;
65597;SDS011;52267;51.984;20.956;2022-09-01T01:56:05;4.50;;;1.90;;
65597;SDS011;52267;51.984;20.956;2022-09-01T01:58:34;4.30;;;2.20;;
65597;SDS011;52267;51.984;20.956;2022-09-01T02:01:01;3.70;;;2.00;;
65597;SDS011;52267;51.984;20.956;2022-09-01T02:03:32;6.00;;;2.30;;
65597;SDS011;52267;51.984;20.956;2022-09-01T02:06:06;4.30;;;2.10;;
65597;SDS011;52267;51.984;20.956;2022-09-01T02:08:36;3.90;;;2.20;;
65597;SDS011;52267;51.984;20.956;2022-09-01T02:11:06;3.30;;;2.00;;
65597;SDS011;52267;51.984;20.956;2022-09-01T02:13:33;5.00;;;2.30;;
65597;SDS011;52267;51.984;20.956;2022-09-01T02:16:04;3.60;;;2.40;;
65597;SDS011;52267;51.984;20.956;2022-09-01T02:18:41;4.30;;;2.40;;
65597;SDS011;52267;51.984;20.956;2022-09-01T02:21:15;4.50;;;2.20;;
65597;SDS011;52267;51.984;20.956;2022-09-01T02:23:51;4.30;;;2.50;;
65597;SDS011;52267;51.984;20.956;2022-09-01T02:26:28;3.40;;;2.20;;
65597;SDS011;52267;51.984;20.956;2022-09-01T02:29:03;3.70;;;2.30;;
65597;SDS011;52267;51.984;20.956;2022-09-01T02:31:33;4.10;;;2.30;;
65597;SDS011;52267;51.984;20.956;2022-09-01T02:34:05;4.00;;;2.10;;
65597;SDS011;52267;51.984;20.956;2022-09-01T02:36:44;3.30;;;2.00;;
65597;SDS011;52267;51.984;20.956;2022-09-01T02:39:21;4.90;;;2.20;;
65597;SDS011;52267;51.984;20.956;2022-09-01T02:41:50;4.50;;;2.50;;
65597;SDS011;52267;51.984;20.956;2022-09-01T02:44:19;4.00;;;2.20;;
65597;SDS011;52267;51.984;20.956;2022-09-01T02:46:48;4.60;;;2.30;;
65597;SDS011;52267;51.984;20.956;2022-09-01T02:49:19;3.60;;;2.30;;
65597;SDS011;52267;51.984;20.956;2022-09-01T02:51:51;3.50;;;2.20;;
65597;SDS011;52267;51.984;20.956;2022-09-01T02:54:20;3.70;;;2.60;;
65597;SDS011;52267;51.984;20.956;2022-09-01T02:56:48;5.60;;;2.00;;
65597;SDS011;52267;51.984;20.956;2022-09-01T02:59:17;4.00;;;2.30;;
65597;SDS011;52267;51.984;20.956;2022-09-01T03:01:51;5.40;;;2.50;;
65597;SDS011;52267;51.984;20.956;2022-09-01T03:04:20;5.00;;;1.90;;
65597;SDS011;52267;51.984;20.956;2022-09-01T03:06:49;2.80;;;1.70;;
65597;SDS011;52267;51.984;20.956;2022-09-01T03:09:20;4.50;;;2.10;;
65597;SDS011;52267;51.984;20.956;2022-09-01T03:11:51;4.70;;;2.30;;
65597;SDS011;52267;51.984;20.956;2022-09-01T03:14:20;3.30;;;2.20;;
65597;SDS011;52267;51.984;20.956;2022-09-01T03:16:49;4.90;;;2.30;;
65597;SDS011;52267;51.984;20.956;2022-09-01T03:19:16;5.10;;;2.50;;
65597;SDS011;52267;51.984;20.956;2022-09-01T03:21:45;4.90;;;2.10;;
65597;SDS011;52267;51.984;20.956;2022-09-01T03:24:14;4.60;;;2.20;;
65597;SDS011;52267;51.984;20.956;2022-09-01T03:26:44;3.40;;;2.10;;
65597;SDS011;52267;51.984;20.956;2022-09-01T03:29:12;4.00;;;2.50;;
65597;SDS011;52267;51.984;20.956;2022-09-01T03:31:40;5.70;;;2.20;;
65597;SDS011;52267;51.984;20.956;2022-09-01T03:34:08;3.50;;;2.30;;
65597;SDS011;52267;51.984;20.956;2022-09-01T03:36:36;3.10;;;2.10;;
65597;SDS011;52267;51.984;20.956;2022-09-01T03:39:03;4.40;;;2.30;;
65597;SDS011;52267;51.984;20.956;2022-09-01T03:41:31;5.60;;;3.20;;
65597;SDS011;52267;51.984;20.956;2022-09-01T03:43:58;5.30;;;2.00;;
65597;SDS011;52267;51.984;20.956;2022-09-01T03:46:27;3.60;;;2.00;;
65597;SDS011;52267;51.984;20.956;2022-09-01T03:48:58;6.00;;;2.20;;
65597;SDS011;52267;51.984;20.956;2022-09-01T03:51:28;4.00;;;2.10;;
65597;SDS011;52267;51.984;20.956;2022-09-01T03:53:56;4.90;;;2.20;;
65597;SDS011;52267;51.984;20.956;2022-09-01T03:56:27;4.60;;;2.60;;
65597;SDS011;52267;51.984;20.956;2022-09-01T03:58:57;4.20;;;1.90;;
65597;SDS011;52267;51.984;20.956;2022-09-01T04:01:26;3.90;;;2.00;;
65597;SDS011;52267;51.984;20.956;2022-09-01T04:03:54;3.30;;;2.00;;
65597;SDS011;52267;51.984;20.956;2022-09-01T04:06:21;6.80;;;2.30;;
65597;SDS011;52267;51.984;20.956;2022-09-01T04:08:50;4.90;;;2.30;;
65597;SDS011;52267;51.984;20.956;2022-09-01T04:11:23;5.60;;;2.30;;
65597;SDS011;52267;51.984;20.956;2022-09-01T04:13:51;3.90;;;2.30;;
65597;SDS011;52267;51.984;20.956;2022-09-01T04:16:30;5.10;;;2.50;;
65597;SDS011;52267;51.984;20.956;2022-09-01T04:19:19;5.60;;;2.20;;
65597;SDS011;52267;51.984;20.956;2022-09-01T04:21:53;4.10;;;2.30;;
65597;SDS011;52267;51.984;20.956;2022-09-01T04:24:23;4.30;;;2.40;;
65597;SDS011;52267;51.984;20.956;2022-09-01T04:26:55;3.50;;;2.10;;
65597;SDS011;52267;51.984;20.956;2022-09-01T04:29:24;3.80;;;2.40;;
65597;SDS011;52267;51.984;20.956;2022-09-01T04:31:57;4.00;;;2.60;;
65597;SDS011;52267;51.984;20.956;2022-09-01T04:34:29;4.60;;;2.40;;
65597;SDS011;52267;51.984;20.956;2022-09-01T04:37:22;4.80;;;2.30;;
65597;SDS011;52267;51.984;20.956;2022-09-01T04:39:50;3.10;;;2.30;;
65597;SDS011;52267;51.984;20.956;2022-09-01T04:42:19;3.60;;;2.50;;
65597;SDS011;52267;51.984;20.956;2022-09-01T04:44:52;4.30;;;2.30;;
65597;SDS011;52267;51.984;20.956;2022-09-01T04:47:22;6.40;;;2.70;;
65597;SDS011;52267;51.984;20.956;2022-09-01T04:49:58;4.30;;;2.80;;
65597;SDS011;52267;51.984;20.956;2022-09-01T04:52:26;5.00;;;2.50;;
65597;SDS011;52267;51.984;20.956;2022-09-01T04:54:53;5.60;;;3.00;;
65597;SDS011;52267;51.984;20.956;2022-09-01T04:57:21;6.40;;;2.90;;
65597;SDS011;52267;51.984;20.956;2022-09-01T04:59:48;5.50;;;3.10;;
65597;SDS011;52267;51.984;20.956;2022-09-01T05:02:15;6.40;;;2.90;;
65597;SDS011;52267;51.984;20.956;2022-09-01T05:04:43;5.00;;;2.70;;
65597;SDS011;52267;51.984;20.956;2022-09-01T05:07:11;5.40;;;3.20;;
65597;SDS011;52267;51.984;20.956;2022-09-01T05:09:39;5.80;;;2.70;;
65597;SDS011;52267;51.984;20.956;2022-09-01T05:12:06;6.10;;;2.40;;
65597;SDS011;52267;51.984;20.956;2022-09-01T05:14:43;6.40;;;3.30;;
65597;SDS011;52267;51.984;20.956;2022-09-01T05:17:14;4.80;;;2.70;;
65597;SDS011;52267;51.984;20.956;2022-09-01T05:19:45;4.40;;;2.70;;
65597;SDS011;52267;51.984;20.956;2022-09-01T05:22:14;5.50;;;2.80;;
65597;SDS011;52267;51.984;20.956;2022-09-01T05:24:43;5.70;;;2.70;;
65597;SDS011;52267;51.984;20.956;2022-09-01T05:27:10;4.60;;;2.60;;
65597;SDS011;52267;51.984;20.956;2022-09-01T05:29:39;5.00;;;2.70;;
65597;SDS011;52267;51.984;20.956;2022-09-01T05:32:07;5.00;;;2.50;;
65597;SDS011;52267;51.984;20.956;2022-09-01T05:34:39;4.30;;;2.60;;
65597;SDS011;52267;51.984;20.956;2022-09-01T05:37:09;4.10;;;2.40;;
65597;SDS011;52267;51.984;20.956;2022-09-01T05:39:38;5.50;;;2.60;;
65597;SDS011;52267;51.984;20.956;2022-09-01T05:42:06;5.60;;;2.60;;
65597;SDS011;52267;51.984;20.956;2022-09-01T05:44:37;6.30;;;2.80;;
65597;SDS011;52267;51.984;20.956;2022-09-01T05:47:09;6.00;;;2.40;;
65597;SDS011;52267;51.984;20.956;2022-09-01T05:49:37;5.90;;;2.90;;
65597;SDS011;52267;51.984;20.956;2022-09-01T05:52:05;7.30;;;2.40;;
65597;SDS011;52267;51.984;20.956;2022-09-01T05:54:34;4.10;;;2.60;;
65597;SDS011;52267;51.984;20.956;2022-09-01T05:57:01;5.40;;;2.20;;
65597;SDS011;52267;51.984;20.956;2022-09-01T05:59:29;7.10;;;2.40;;
65597;SDS011;52267;51.984;20.956;2022-09-01T06:01:59;4.60;;;2.10;;
65597;SDS011;52267;51.984;20.956;2022-09-01T06:04:26;3.70;;;2.00;;
65597;SDS011;52267;51.984;20.956;2022-09-01T06:06:53;4.80;;;2.10;;
65597;SDS011;52267;51.984;20.956;2022-09-01T06:09:22;7.70;;;3.30;;
65597;SDS011;52267;51.984;20.956;2022-09-01T06:11:49;7.70;;;3.80;;
65597;SDS011;52267;51.984;20.956;2022-09-01T06:14:17;5.60;;;2.40;;
65597;SDS011;52267;51.984;20.956;2022-09-01T06:16:45;9.70;;;4.00;;
65597;SDS011;52267;51.984;20.956;2022-09-01T06:19:12;5.20;;;2.40;;
65597;SDS011;52267;51.984;20.956;2022-09-01T06:21:40;5.10;;;2.30;;
65597;SDS011;52267;51.984;20.956;2022-09-01T06:24:07;3.50;;;1.90;;
65597;SDS011;52267;51.984;20.956;2022-09-01T06:26:36;5.10;;;3.00;;
65597;SDS011;52267;51.984;20.956;2022-09-01T06:29:08;3.10;;;1.80;;
65597;SDS011;52267;51.984;20.956;2022-09-01T06:31:40;6.20;;;1.70;;
65597;SDS011;52267;51.984;20.956;2022-09-01T06:34:10;5.10;;;1.90;;
65597;SDS011;52267;51.984;20.956;2022-09-01T06:36:41;8.10;;;1.70;;
65597;SDS011;52267;51.984;20.956;2022-09-01T06:39:08;5.00;;;1.40;;
65597;SDS011;52267;51.984;20.956;2022-09-01T06:41:49;5.00;;;1.50;;
65597;SDS011;52267;51.984;20.956;2022-09-01T06:44:19;5.40;;;1.30;;
65597;SDS011;52267;51.984;20.956;2022-09-01T06:46:49;5.20;;;1.40;;
65597;SDS011;52267;51.984;20.956;2022-09-01T06:49:17;3.20;;;1.50;;
65597;SDS011;52267;51.984;20.956;2022-09-01T06:51:46;2.70;;;1.20;;
65597;SDS011;52267;51.984;20.956;2022-09-01T06:54:15;3.80;;;1.20;;
65597;SDS011;52267;51.984;20.956;2022-09-01T06:56:42;4.10;;;1.50;;
65597;SDS011;52267;51.984;20.956;2022-09-01T06:59:09;3.50;;;1.40;;
65597;SDS011;52267;51.984;20.956;2022-09-01T07:01:38;2.90;;;1.00;;
65597;SDS011;52267;51.984;20.956;2022-09-01T07:04:05;4.30;;;1.10;;
65597;SDS011;52267;51.984;20.956;2022-09-01T07:06:32;3.20;;;1.10;;
65597;SDS011;52267;51.984;20.956;2022-09-01T07:09:00;4.40;;;1.00;;
65597;SDS011;52267;51.984;20.956;2022-09-01T07:11:30;2.80;;;1.00;;
65597;SDS011;52267;51.984;20.956;2022-09-01T07:14:02;4.40;;;1.10;;
65597;SDS011;52267;51.984;20.956;2022-09-01T07:16:34;2.70;;;0.90;;
65597;SDS011;52267;51.984;20.956;2022-09-01T07:19:07;2.80;;;0.90;;
65597;SDS011;52267;51.984;20.956;2022-09-01T07:21:38;5.20;;;1.10;;
65597;SDS011;52267;51.984;20.956;2022-09-01T07:24:05;5.90;;;1.30;;
65597;SDS011;52267;51.984;20.956;2022-09-01T07:26:33;3.00;;;1.00;;
65597;SDS011;52267;51.984;20.956;2022-09-01T07:29:04;5.00;;;1.00;;
65597;SDS011;52267;51.984;20.956;2022-09-01T07:31:35;3.90;;;1.10;;
65597;SDS011;52267;51.984;20.956;2022-09-01T07:34:06;3.10;;;1.00;;
65597;SDS011;52267;51.984;20.956;2022-09-01T07:36:36;2.10;;;0.80;;
65597;SDS011;52267;51.984;20.956;2022-09-01T07:39:04;2.70;;;0.70;;
65597;SDS011;52267;51.984;20.956;2022-09-01T07:41:31;3.00;;;0.90;;
65597;SDS011;52267;51.984;20.956;2022-09-01T07:44:01;1.90;;;0.70;;
65597;SDS011;52267;51.984;20.956;2022-09-01T07:46:31;1.70;;;0.70;;
65597;SDS011;52267;51.984;20.956;2022-09-01T07:48:59;5.50;;;1.00;;
65597;SDS011;52267;51.984;20.956;2022-09-01T07:51:28;1.70;;;0.70;;
65597;SDS011;52267;51.984;20.956;2022-09-01T07:53:57;3.00;;;0.80;;
65597;SDS011;52267;51.984;20.956;2022-09-01T07:56:24;2.00;;;0.70;;
65597;SDS011;52267;51.984;20.956;2022-09-01T07:58:51;1.40;;;1.00;;
65597;SDS011;52267;51.984;20.956;2022-09-01T08:01:21;2.80;;;0.70;;
65597;SDS011;52267;51.984;20.956;2022-09-01T08:03:56;1.80;;;0.60;;
65597;SDS011;52267;51.984;20.956;2022-09-01T08:06:26;1.60;;;0.70;;
65597;SDS011;52267;51.984;20.956;2022-09-01T08:08:56;3.00;;;0.60;;
65597;SDS011;52267;51.984;20.956;2022-09-01T08:11:27;2.60;;;0.60;;
65597;SDS011;52267;51.984;20.956;2022-09-01T08:13:57;2.90;;;0.70;;
65597;SDS011;52267;51.984;20.956;2022-09-01T08:16:26;2.30;;;0.60;;
65597;SDS011;52267;51.984;20.956;2022-09-01T08:18:55;1.90;;;0.60;;
65597;SDS011;52267;51.984;20.956;2022-09-01T08:21:23;1.00;;;0.50;;
65597;SDS011;52267;51.984;20.956;2022-09-01T08:23:52;1.30;;;0.60;;
65597;SDS011;52267;51.984;20.956;2022-09-01T08:26:23;0.80;;;0.50;;
65597;SDS011;52267;51.984;20.956;2022-09-01T08:28:52;4.70;;;0.70;;
65597;SDS011;52267;51.984;20.956;2022-09-01T08:31:20;1.50;;;0.50;;
65597;SDS011;52267;51.984;20.956;2022-09-01T08:33:48;1.10;;;0.50;;
65597;SDS011;52267;51.984;20.956;2022-09-01T08:36:16;0.90;;;0.50;;
65597;SDS011;52267;51.984;20.956;2022-09-01T08:38:44;3.20;;;0.60;;
65597;SDS011;52267;51.984;20.956;2022-09-01T08:41:16;3.20;;;0.60;;
65597;SDS011;52267;51.984;20.956;2022-09-01T08:46:26;1.70;;;0.70;;
65597;SDS011;52267;51.984;20.956;2022-09-01T08:49:17;1.10;;;0.50;;
65597;SDS011;52267;51.984;20.956;2022-09-01T08:55:35;4.20;;;0.70;;
65597;SDS011;52267;51.984;20.956;2022-09-01T08:58:09;1.50;;;0.50;;
65597;SDS011;52267;51.984;20.956;2022-09-01T09:00:41;1.60;;;0.60;;
65597;SDS011;52267;51.984;20.956;2022-09-01T09:03:19;1.10;;;0.40;;
65597;SDS011;52267;51.984;20.956;2022-09-01T09:06:10;1.50;;;0.70;;
65597;SDS011;52267;51.984;20.956;2022-09-01T09:09:03;3.00;;;0.60;;
65597;SDS011;52267;51.984;20.956;2022-09-01T09:17:12;1.80;;;0.70;;
65597;SDS011;52267;51.984;20.956;2022-09-01T09:19:42;2.70;;;0.60;;
65597;SDS011;52267;51.984;20.956;2022-09-01T09:22:13;3.30;;;0.60;;
65597;SDS011;52267;51.984;20.956;2022-09-01T09:27:47;2.20;;;0.60;;
65597;SDS011;52267;51.984;20.956;2022-09-01T09:30:25;2.60;;;0.60;;
65597;SDS011;52267;51.984;20.956;2022-09-01T09:32:58;2.00;;;0.60;;
65597;SDS011;52267;51.984;20.956;2022-09-01T09:41:05;2.70;;;0.80;;
65597;SDS011;52267;51.984;20.956;2022-09-01T09:43:58;3.30;;;0.80;;
65597;SDS011;52267;51.984;20.956;2022-09-01T09:46:35;3.40;;;0.70;;
65597;SDS011;52267;51.984;20.956;2022-09-01T09:49:19;1.40;;;0.60;;
65597;SDS011;52267;51.984;20.956;2022-09-01T09:51:56;2.80;;;0.60;;
65597;SDS011;52267;51.984;20.956;2022-09-01T09:54:40;3.30;;;0.70;;
65597;SDS011;52267;51.984;20.956;2022-09-01T09:57:24;5.90;;;1.00;;
65597;SDS011;52267;51.984;20.956;2022-09-01T10:02:35;2.60;;;0.90;;
65597;SDS011;52267;51.984;20.956;2022-09-01T10:05:21;6.50;;;1.30;;
65597;SDS011;52267;51.984;20.956;2022-09-01T10:07:52;2.10;;;0.80;;
65597;SDS011;52267;51.984;20.956;2022-09-01T10:10:40;3.30;;;0.90;;
65597;SDS011;52267;51.984;20.956;2022-09-01T10:13:15;3.70;;;0.90;;
65597;SDS011;52267;51.984;20.956;2022-09-01T10:15:50;2.30;;;0.80;;
65597;SDS011;52267;51.984;20.956;2022-09-01T10:21:03;1.90;;;0.80;;
65597;SDS011;52267;51.984;20.956;2022-09-01T10:23:41;2.50;;;0.70;;
65597;SDS011;52267;51.984;20.956;2022-09-01T10:26:21;1.50;;;0.60;;
65597;SDS011;52267;51.984;20.956;2022-09-01T10:28:55;1.20;;;0.60;;
65597;SDS011;52267;51.984;20.956;2022-09-01T10:31:25;1.90;;;0.80;;
65597;SDS011;52267;51.984;20.956;2022-09-01T10:33:53;1.70;;;0.60;;
65597;SDS011;52267;51.984;20.956;2022-09-01T10:36:21;1.70;;;0.60;;
65597;SDS011;52267;51.984;20.956;2022-09-01T10:38:48;2.00;;;0.60;;
65597;SDS011;52267;51.984;20.956;2022-09-01T10:41:49;1.10;;;0.50;;
65597;SDS011;52267;51.984;20.956;2022-09-01T10:44:20;2.30;;;1.10;;
65597;SDS011;52267;51.984;20.956;2022-09-01T10:46:57;1.10;;;0.70;;
65597;SDS011;52267;51.984;20.956;2022-09-01T10:50:22;1.40;;;0.70;;
65597;SDS011;52267;51.984;20.956;2022-09-01T10:53:03;0.90;;;0.40;;
65597;SDS011;52267;51.984;20.956;2022-09-01T10:55:41;2.30;;;0.70;;
65597;SDS011;52267;51.984;20.956;2022-09-01T10:58:38;1.60;;;0.70;;
65597;SDS011;52267;51.984;20.956;2022-09-01T11:01:05;1.50;;;0.60;;
65597;SDS011;52267;51.984;20.956;2022-09-01T11:03:38;2.60;;;0.80;;
65597;SDS011;52267;51.984;20.956;2022-09-01T11:11:58;2.70;;;0.70;;
65597;SDS011;52267;51.984;20.956;2022-09-01T11:14:33;1.90;;;0.50;;
65597;SDS011;52267;51.984;20.956;2022-09-01T11:17:17;2.50;;;0.60;;
65597;SDS011;52267;51.984;20.956;2022-09-01T11:28:05;1.30;;;0.50;;
65597;SDS011;52267;51.984;20.956;2022-09-01T11:30:45;1.90;;;0.60;;
65597;SDS011;52267;51.984;20.956;2022-09-01T11:39:30;0.60;;;0.40;;
65597;SDS011;52267;51.984;20.956;2022-09-01T11:42:23;2.80;;;0.50;;
65597;SDS011;52267;51.984;20.956;2022-09-01T11:45:01;0.50;;;0.30;;
65597;SDS011;52267;51.984;20.956;2022-09-01T11:47:39;0.50;;;0.30;;
65597;SDS011;52267;51.984;20.956;2022-09-01T11:53:33;2.50;;;0.30;;
65597;SDS011;52267;51.984;20.956;2022-09-01T11:55:45;1.00;;;0.40;;
65597;SDS011;52267;51.984;20.956;2022-09-01T12:01:19;0.40;;;0.40;;
65597;SDS011;52267;51.984;20.956;2022-09-01T12:03:57;1.00;;;0.40;;
65597;SDS011;52267;51.984;20.956;2022-09-01T12:06:26;1.30;;;0.50;;
65597;SDS011;52267;51.984;20.956;2022-09-01T12:09:00;1.80;;;0.50;;
65597;SDS011;52267;51.984;20.956;2022-09-01T12:11:32;1.10;;;0.50;;
65597;SDS011;52267;51.984;20.956;2022-09-01T12:14:06;1.80;;;0.50;;
65597;SDS011;52267;51.984;20.956;2022-09-01T12:16:37;1.20;;;0.30;;
65597;SDS011;52267;51.984;20.956;2022-09-01T12:19:07;1.20;;;0.40;;
65597;SDS011;52267;51.984;20.956;2022-09-01T12:21:55;0.60;;;0.40;;
65597;SDS011;52267;51.984;20.956;2022-09-01T12:24:25;1.10;;;0.50;;
65597;SDS011;52267;51.984;20.956;2022-09-01T12:26:54;2.50;;;0.60;;
65597;SDS011;52267;51.984;20.956;2022-09-01T12:29:24;2.00;;;0.40;;
65597;SDS011;52267;51.984;20.956;2022-09-01T12:31:52;1.60;;;0.40;;
65597;SDS011;52267;51.984;20.956;2022-09-01T12:34:25;1.10;;;0.50;;
65597;SDS011;52267;51.984;20.956;2022-09-01T12:39:40;1.30;;;0.50;;
65597;SDS011;52267;51.984;20.956;2022-09-01T12:44:50;2.60;;;0.50;;
65597;SDS011;52267;51.984;20.956;2022-09-01T12:53:00;1.60;;;0.50;;
65597;SDS011;52267;51.984;20.956;2022-09-01T12:55:34;1.50;;;0.40;;
65597;SDS011;52267;51.984;20.956;2022-09-01T12:58:07;2.80;;;0.50;;
65597;SDS011;52267;51.984;20.956;2022-09-01T13:00:52;2.20;;;0.50;;
65597;SDS011;52267;51.984;20.956;2022-09-01T13:03:30;2.30;;;0.60;;
65597;SDS011;52267;51.984;20.956;2022-09-01T13:05:59;2.80;;;0.60;;
65597;SDS011;52267;51.984;20.956;2022-09-01T13:08:30;2.70;;;0.60;;
65597;SDS011;52267;51.984;20.956;2022-09-01T13:13:34;1.50;;;0.50;;
65597;SDS011;52267;51.984;20.956;2022-09-01T13:16:02;1.70;;;0.60;;
65597;SDS011;52267;51.984;20.956;2022-09-01T13:18:33;2.20;;;0.40;;
65597;SDS011;52267;51.984;20.956;2022-09-01T13:21:00;1.20;;;0.40;;
65597;SDS011;52267;51.984;20.956;2022-09-01T13:23:27;1.30;;;0.60;;
65597;SDS011;52267;51.984;20.956;2022-09-01T13:25:54;3.00;;;0.40;;
65597;SDS011;52267;51.984;20.956;2022-09-01T13:28:21;1.80;;;0.50;;
65597;SDS011;52267;51.984;20.956;2022-09-01T13:30:58;2.60;;;0.50;;
65597;SDS011;52267;51.984;20.956;2022-09-01T13:33:27;1.20;;;0.70;;
65597;SDS011;52267;51.984;20.956;2022-09-01T13:35:54;0.90;;;0.40;;
65597;SDS011;52267;51.984;20.956;2022-09-01T13:38:21;1.00;;;0.40;;
65597;SDS011;52267;51.984;20.956;2022-09-01T13:40:49;3.00;;;0.60;;
65597;SDS011;52267;51.984;20.956;2022-09-01T13:43:20;1.90;;;0.60;;
65597;SDS011;52267;51.984;20.956;2022-09-01T13:45:48;2.40;;;0.80;;
65597;SDS011;52267;51.984;20.956;2022-09-01T13:48:16;1.10;;;0.50;;
65597;SDS011;52267;51.984;20.956;2022-09-01T13:50:45;1.90;;;0.50;;
65597;SDS011;52267;51.984;20.956;2022-09-01T13:53:15;2.50;;;0.70;;
65597;SDS011;52267;51.984;20.956;2022-09-01T13:55:42;3.00;;;0.80;;
65597;SDS011;52267;51.984;20.956;2022-09-01T13:58:10;2.20;;;0.70;;
65597;SDS011;52267;51.984;20.956;2022-09-01T14:00:41;3.00;;;0.70;;
65597;SDS011;52267;51.984;20.956;2022-09-01T14:03:18;1.30;;;0.60;;
65597;SDS011;52267;51.984;20.956;2022-09-01T14:05:47;1.60;;;0.60;;
65597;SDS011;52267;51.984;20.956;2022-09-01T14:08:17;1.80;;;0.50;;
65597;SDS011;52267;51.984;20.956;2022-09-01T14:10:48;1.50;;;0.50;;
65597;SDS011;52267;51.984;20.956;2022-09-01T14:13:18;2.10;;;0.70;;
65597;SDS011;52267;51.984;20.956;2022-09-01T14:15:47;2.00;;;0.50;;
65597;SDS011;52267;51.984;20.956;2022-09-01T14:18:15;1.20;;;0.30;;
65597;SDS011;52267;51.984;20.956;2022-09-01T14:20:45;0.90;;;0.40;;
65597;SDS011;52267;51.984;20.956;2022-09-01T14:23:13;1.10;;;0.60;;
65597;SDS011;52267;51.984;20.956;2022-09-01T14:25:43;2.30;;;0.50;;
65597;SDS011;52267;51.984;20.956;2022-09-01T14:28:12;1.30;;;0.50;;
65597;SDS011;52267;51.984;20.956;2022-09-01T14:30:40;2.10;;;0.50;;
65597;SDS011;52267;51.984;20.956;2022-09-01T14:33:09;1.10;;;0.60;;
65597;SDS011;52267;51.984;20.956;2022-09-01T14:35:39;1.20;;;0.40;;
65597;SDS011;52267;51.984;20.956;2022-09-01T14:38:07;0.90;;;0.50;;
65597;SDS011;52267;51.984;20.956;2022-09-01T14:40:35;1.90;;;0.60;;
65597;SDS011;52267;51.984;20.956;2022-09-01T14:43:07;2.70;;;0.50;;
65597;SDS011;52267;51.984;20.956;2022-09-01T14:45:35;3.50;;;1.20;;
65597;SDS011;52267;51.984;20.956;2022-09-01T14:48:04;4.40;;;1.10;;
65597;SDS011;52267;51.984;20.956;2022-09-01T14:50:32;2.00;;;0.90;;
65597;SDS011;52267;51.984;20.956;2022-09-01T14:53:01;4.50;;;0.90;;
65597;SDS011;52267;51.984;20.956;2022-09-01T14:55:29;1.70;;;0.70;;
65597;SDS011;52267;51.984;20.956;2022-09-01T14:57:57;1.00;;;0.60;;
65597;SDS011;52267;51.984;20.956;2022-09-01T15:00:25;2.20;;;0.70;;
65597;SDS011;52267;51.984;20.956;2022-09-01T15:02:54;2.50;;;0.70;;
65597;SDS011;52267;51.984;20.956;2022-09-01T15:05:22;1.70;;;0.50;;
65597;SDS011;52267;51.984;20.956;2022-09-01T15:07:50;3.20;;;0.60;;
65597;SDS011;52267;51.984;20.956;2022-09-01T15:10:25;1.90;;;0.90;;
65597;SDS011;52267;51.984;20.956;2022-09-01T15:12:56;1.60;;;0.60;;
65597;SDS011;52267;51.984;20.956;2022-09-01T15:15:26;1.10;;;0.50;;
65597;SDS011;52267;51.984;20.956;2022-09-01T15:17:54;1.40;;;0.60;;
65597;SDS011;52267;51.984;20.956;2022-09-01T15:20:23;2.20;;;0.60;;
65597;SDS011;52267;51.984;20.956;2022-09-01T15:23:08;0.70;;;0.30;;
65597;SDS011;52267;51.984;20.956;2022-09-01T15:25:36;1.10;;;0.50;;
65597;SDS011;52267;51.984;20.956;2022-09-01T15:28:04;3.60;;;0.90;;
65597;SDS011;52267;51.984;20.956;2022-09-01T15:30:31;1.70;;;0.70;;
65597;SDS011;52267;51.984;20.956;2022-09-01T15:32:58;2.80;;;0.90;;
65597;SDS011;52267;51.984;20.956;2022-09-01T15:35:27;6.90;;;0.80;;
65597;SDS011;52267;51.984;20.956;2022-09-01T15:37:55;2.80;;;0.80;;
65597;SDS011;52267;51.984;20.956;2022-09-01T15:40:23;2.50;;;0.90;;
65597;SDS011;52267;51.984;20.956;2022-09-01T15:42:50;2.10;;;1.00;;
65597;SDS011;52267;51.984;20.956;2022-09-01T15:45:19;3.30;;;1.30;;
65597;SDS011;52267;51.984;20.956;2022-09-01T15:47:47;2.10;;;0.80;;
65597;SDS011;52267;51.984;20.956;2022-09-01T15:50:18;2.70;;;0.80;;
65597;SDS011;52267;51.984;20.956;2022-09-01T15:55:41;3.80;;;0.80;;
65597;SDS011;52267;51.984;20.956;2022-09-01T15:58:14;4.10;;;0.70;;
65597;SDS011;52267;51.984;20.956;2022-09-01T16:03:10;3.10;;;0.70;;
65597;SDS011;52267;51.984;20.956;2022-09-01T16:05:39;2.00;;;0.70;;
65597;SDS011;52267;51.984;20.956;2022-09-01T16:08:07;2.10;;;0.70;;
65597;SDS011;52267;51.984;20.956;2022-09-01T16:10:38;2.50;;;0.70;;
65597;SDS011;52267;51.984;20.956;2022-09-01T16:13:06;1.10;;;0.60;;
65597;SDS011;52267;51.984;20.956;2022-09-01T16:15:33;3.10;;;0.60;;